Fairview, Kansas
Current Conditions -  °F | °C
As of 4:53 AM on Friday 24 Oct 2014 (Local Time) from KFNB Reporting Station
Haze Haze  
Wind Chill: 59°   Ceiling: 300
Heat Index: 59°   Visibility: 3mi
Dew Point: 58°   Wind: 9mph
Humidity: 96%   Direction: 190°S
Pressure: 30.01"   Gusts: NA
Location:  39.84°N, 95.73°W
Report Text: KFNB 240953Z AUTO 19008KT 3SM BR OVC003 15/14 A3001 RMK AO2 SLP156 T01500144
Loading
Personal Weather Stations






























Interactive Weather Map
Tropical Storm Tracking
New forecast layout! Learn more

10-Day Weather Forecast

Advertisements
Track Severe Weather on mobile